Time;durP1;ratioP1;P1;durP2;ratioP2;P2;SDS_P1;SDS_P2;PMS_P1;PMS_P2;Temp;Humidity;BMP_temperature;BMP_pressure;BME280_temperature;BME280_humidity;BME280_pressure;Samples;Min_cycle;Max_cycle;Signal;HPM_P1;HPM_P2
2022/11/04 00:01:53;;;;;;;9.45;6.00;;;;;;;0.14;68.56;99545.19;5107349;27;20042;-71
2022/11/04 00:04:20;;;;;;;8.98;6.30;;;;;;;0.16;68.50;99545.13;5072627;27;20058;-70
2022/11/04 00:06:45;;;;;;;11.82;6.93;;;;;;;0.14;68.23;99558.28;5116011;27;20053;-70
2022/11/04 00:09:16;;;;;;;9.55;6.07;;;;;;;0.18;68.19;99543.31;5131802;27;20070;-66
2022/11/04 00:14:24;;;;;;;10.68;6.47;;;;;;;0.11;68.55;99547.91;5101766;27;20048;-73
2022/11/04 00:28:41;;;;;;;11.98;7.30;;;;;;;0.12;68.21;99565.31;5121543;27;20051;-69
2022/11/04 00:30:26;;;;;;;9.57;6.50;;;;;;;0.11;67.89;99544.44;5120006;27;20106;-67
2022/11/04 00:35:34;;;;;;;9.35;6.35;;;;;;;0.06;67.95;99541.09;5116802;27;20049;-66
2022/11/04 00:37:59;;;;;;;13.07;7.68;;;;;;;-0.01;68.18;99543.03;5118194;27;20038;-65
2022/11/04 00:40:24;;;;;;;10.18;6.15;;;;;;;-0.03;68.26;99535.22;5117710;27;20091;-67
2022/11/04 00:42:48;;;;;;;11.20;7.03;;;;;;;-0.06;68.08;99542.31;5100027;27;20035;-65
2022/11/04 00:45:13;;;;;;;13.27;7.53;;;;;;;-0.15;68.15;99537.34;5118293;27;20040;-66
2022/11/04 00:47:38;;;;;;;11.30;7.10;;;;;;;-0.13;68.57;99536.41;5092520;27;20035;-68
2022/11/04 00:50:03;;;;;;;14.32;7.15;;;;;;;-0.08;68.92;99541.50;5097600;27;20043;-73
2022/11/04 00:52:27;;;;;;;12.88;7.47;;;;;;;-0.04;68.71;99535.28;5079182;27;20042;-69
2022/11/04 00:54:52;;;;;;;11.43;7.30;;;;;;;-0.03;68.82;99532.59;5084970;27;20125;-73
2022/11/04 00:57:17;;;;;;;11.93;6.68;;;;;;;0.01;68.68;99538.59;5119974;27;20049;-73
2022/11/04 00:59:42;;;;;;;13.30;7.30;;;;;;;0.02;68.60;99532.44;5120261;27;20039;-75
2022/11/04 01:02:08;;;;;;;10.50;6.43;;;;;;;0.03;68.50;99534.16;5120342;27;20037;-76
2022/11/04 01:04:33;;;;;;;11.13;5.93;;;;;;;0.02;68.75;99524.59;5085711;27;20045;-75
2022/11/04 01:06:58;;;;;;;8.57;6.63;;;;;;;0.03;68.84;99525.44;5100060;27;20599;-72
2022/11/04 01:09:23;;;;;;;11.05;6.97;;;;;;;0.04;68.38;99521.91;5099437;27;20852;-74
2022/11/04 01:11:48;;;;;;;10.48;6.90;;;;;;;0.03;68.74;99523.69;5117765;27;20597;-72
2022/11/04 01:14:13;;;;;;;10.70;6.70;;;;;;;0.05;68.63;99532.34;5101192;27;20034;-72
2022/11/04 01:16:38;;;;;;;14.95;7.18;;;;;;;0.06;68.48;99523.59;5121623;27;20090;-76
2022/11/04 01:19:03;;;;;;;11.10;7.25;;;;;;;0.08;68.15;99516.56;5129451;27;20053;-72
2022/11/04 01:21:27;;;;;;;10.93;7.38;;;;;;;0.09;68.14;99513.03;5123393;27;20046;-78
2022/11/04 01:23:52;;;;;;;12.57;7.13;;;;;;;0.07;68.13;99514.84;5101341;27;20481;-76
2022/11/04 01:26:20;;;;;;;12.07;7.63;;;;;;;0.07;68.09;99517.44;5101244;27;20043;-68
2022/11/04 01:28:45;;;;;;;13.40;8.77;;;;;;;0.00;67.59;99508.91;5120347;27;20484;-67
2022/11/04 01:31:15;;;;;;;12.82;7.63;;;;;;;0.00;68.09;99526.41;5115910;27;20035;-76
2022/11/04 01:33:40;;;;;;;17.42;8.40;;;;;;;-0.07;68.05;99537.97;5098450;27;20587;-71
2022/11/04 01:36:07;;;;;;;12.77;8.25;;;;;;;-0.11;68.34;99525.84;5081530;27;20114;-74
2022/11/04 01:38:32;;;;;;;16.20;8.73;;;;;;;-0.10;68.17;99528.44;5117076;27;20407;-68
2022/11/04 01:40:57;;;;;;;13.50;8.30;;;;;;;-0.08;68.65;99520.53;5098937;27;20405;-69
2022/11/04 01:43:30;;;;;;;14.00;7.68;;;;;;;-0.07;68.76;99532.72;5119174;27;20083;-72
2022/11/04 01:45:59;;;;;;;13.02;8.38;;;;;;;0.00;68.55;99529.03;5097597;27;20047;-68
2022/11/04 01:48:34;;;;;;;13.20;7.97;;;;;;;-0.03;68.07;99524.75;5080150;27;20042;-72
2022/11/04 01:50:58;;;;;;;;;;;;;;;0.07;67.92;99533.19;5098288;27;20686;-69
2022/11/04 01:53:36;;;;;;;;;;;;;;;0.05;67.60;99524.50;5089937;27;20344;-67
2022/11/04 01:56:10;;;;;;;15.75;7.30;;;;;;;-0.11;68.12;99537.19;5097224;27;19916;-71
2022/11/04 01:58:35;;;;;;;11.75;7.55;;;;;;;-0.15;68.35;99534.72;5097852;27;20042;-71
2022/11/04 02:01:00;;;;;;;20.02;8.65;;;;;;;-0.21;68.65;99538.38;5077863;27;20099;-66
2022/11/04 02:03:47;;;;;;;13.10;7.63;;;;;;;-0.23;68.58;99545.44;5102215;27;20066;-70
2022/11/04 02:06:13;;;;;;;12.18;7.25;;;;;;;-0.21;68.80;99533.13;5103237;27;20544;-71
2022/11/04 02:08:39;;;;;;;14.02;8.43;;;;;;;-0.29;69.00;99536.91;5081455;27;20047;-70
2022/11/04 02:11:04;;;;;;;17.25;10.02;;;;;;;-0.33;69.13;99533.50;5078362;27;20071;-72
2022/11/04 02:13:31;;;;;;;16.55;9.80;;;;;;;-0.38;69.32;99535.41;5098157;27;20074;-73
2022/11/04 02:16:17;;;;;;;17.13;9.63;;;;;;;-0.35;69.09;99524.00;5117382;27;20094;-70
2022/11/04 02:18:55;;;;;;;17.30;9.45;;;;;;;-0.40;69.69;99535.44;5118207;27;20062;-77
2022/11/04 02:21:46;;;;;;;17.50;9.35;;;;;;;-0.36;69.82;99533.59;5100271;27;20527;-72
2022/11/04 02:24:41;;;;;;;13.80;8.15;;;;;;;-0.38;69.67;99540.66;5063625;27;20043;-73
2022/11/04 02:27:21;;;;;;;17.88;8.27;;;;;;;-0.30;69.45;99535.16;5096890;27;20042;-72
2022/11/04 02:29:55;;;;;;;16.40;8.20;;;;;;;-0.40;69.56;99526.72;5096827;27;20050;-72
2022/11/04 02:32:56;;;;;;;21.53;8.80;;;;;;;-0.28;69.58;99530.75;5061152;27;20042;-72
2022/11/04 02:35:29;;;;;;;15.77;9.27;;;;;;;-0.33;69.58;99530.88;5062002;27;20096;-74
2022/11/04 02:38:09;;;;;;;14.82;7.93;;;;;;;-0.25;69.87;99533.28;5061614;27;20046;-74
2022/11/04 02:40:43;;;;;;;12.88;7.40;;;;;;;-0.22;69.58;99535.78;5078074;27;20042;-69
2022/11/04 02:43:17;;;;;;;16.58;8.80;;;;;;;-0.24;69.58;99535.00;5077429;27;20042;-73
2022/11/04 02:46:08;;;;;;;11.80;7.40;;;;;;;-0.18;69.50;99532.19;5078127;28;20422;-74
2022/11/04 02:48:45;;;;;;;12.35;7.82;;;;;;;-0.20;69.43;99531.38;5044188;27;20070;-75
2022/11/04 02:51:17;;;;;;;11.18;7.30;;;;;;;-0.16;69.85;99523.38;5060475;27;20557;-72
2022/11/04 02:53:55;;;;;;;10.40;7.25;;;;;;;-0.11;69.51;99537.19;5077369;27;20061;-72
2022/11/04 02:56:21;;;;;;;11.82;6.22;;;;;;;-0.10;69.46;99523.19;5059943;28;20137;-75
2022/11/04 02:59:00;;;;;;;13.25;7.63;;;;;;;-0.07;69.21;99523.09;5076243;28;20045;-73
2022/11/04 03:01:30;;;;;;;11.70;6.57;;;;;;;-0.08;68.96;99531.00;5069116;27;20039;-70
2022/11/04 03:04:05;;;;;;;12.77;7.75;;;;;;;-0.04;69.13;99524.78;5096305;27;20045;-69
2022/11/04 03:06:32;;;;;;;12.70;6.53;;;;;;;-0.05;69.33;99520.44;5115273;27;20038;-70
2022/11/04 03:09:00;;;;;;;12.95;7.25;;;;;;;-0.02;69.32;99522.97;5112600;27;20034;-72
2022/11/04 03:11:27;;;;;;;13.88;7.07;;;;;;;0.00;69.04;99526.41;5052975;27;20046;-69
2022/11/04 03:14:05;;;;;;;10.75;6.75;;;;;;;0.06;69.37;99526.22;5114063;27;20035;-69
2022/11/04 03:16:37;;;;;;;11.48;7.22;;;;;;;0.08;68.88;99531.41;5115202;27;20461;-69
2022/11/04 03:19:15;;;;;;;12.10;6.80;;;;;;;0.11;68.57;99526.94;5114604;27;20045;-67
2022/11/04 03:21:53;;;;;;;12.82;7.45;;;;;;;0.10;68.59;99522.59;5113564;27;20424;-66
2022/11/04 03:24:20;;;;;;;12.48;7.00;;;;;;;0.06;68.75;99515.72;5096611;27;20042;-70
2022/11/04 03:27:16;;;;;;;11.25;7.03;;;;;;;0.07;68.62;99527.06;5077477;27;20039;-70
2022/11/04 03:30:10;;;;;;;13.07;7.43;;;;;;;0.07;68.69;99519.22;5077223;27;20055;-69
2022/11/04 03:32:59;;;;;;;16.90;7.93;;;;;;;0.07;68.69;99516.59;5096566;27;20038;-69
2022/11/04 03:35:26;;;;;;;11.85;7.18;;;;;;;0.03;68.61;99515.81;5094460;27;20512;-68
2022/11/04 03:37:51;;;;;;;11.52;6.70;;;;;;;0.05;68.50;99526.25;5115104;27;20030;-79
2022/11/04 03:40:17;;;;;;;11.63;7.07;;;;;;;0.04;68.80;99525.41;5079446;27;20103;-72
2022/11/04 03:42:56;;;;;;;17.27;7.93;;;;;;;0.10;68.69;99530.47;5097180;27;20042;-76
2022/11/04 03:45:20;;;;;;;12.25;6.97;;;;;;;0.10;69.04;99525.22;5094911;28;20116;-76
2022/11/04 03:47:45;;;;;;;14.73;8.40;;;;;;;0.08;68.62;99531.41;5077001;28;20047;-76
2022/11/04 03:50:18;;;;;;;12.30;6.85;;;;;;;0.11;68.89;99534.81;5076282;28;20039;-77
2022/11/04 03:52:43;;;;;;;14.57;6.90;;;;;;;0.06;68.56;99528.84;5060224;28;20043;-78
2022/11/04 03:55:10;;;;;;;10.25;6.70;;;;;;;0.08;68.51;99532.28;5076366;28;20035;-75
2022/11/04 03:58:22;;;;;;;12.52;6.65;;;;;;;0.15;68.75;99531.16;5095237;28;20100;-74
2022/11/04 04:00:55;;;;;;;11.70;7.60;;;;;;;0.11;68.30;99531.34;4975412;28;20064;-76
2022/11/04 04:03:33;;;;;;;18.70;8.52;;;;;;;0.10;68.40;99533.09;4975923;28;20060;-77
2022/11/04 04:06:16;;;;;;;12.48;7.75;;;;;;;0.08;68.48;99537.50;4998405;28;20042;-75
2022/11/04 04:08:59;;;;;;;15.85;7.20;;;;;;;0.07;68.24;99537.56;4982584;28;20058;-76
2022/11/04 04:11:51;;;;;;;13.98;7.00;;;;;;;0.04;68.49;99529.78;4999765;28;20175;-75
2022/11/04 04:14:38;;;;;;;13.48;7.75;;;;;;;0.00;68.37;99534.28;4996261;28;20037;-76
2022/11/04 04:17:08;;;;;;;14.20;7.80;;;;;;;-0.05;68.47;99525.69;4995992;28;20069;-76
2022/11/04 04:19:33;;;;;;;14.18;7.47;;;;;;;-0.08;68.54;99536.25;4979793;28;20045;-74
2022/11/04 04:22:03;;;;;;;17.67;7.30;;;;;;;-0.08;68.68;99541.50;4977308;28;20059;-77
2022/11/04 04:27:32;;;;;;;14.95;8.10;;;;;;;-0.05;68.48;99546.66;4976077;28;20045;-77
2022/11/04 04:30:03;;;;;;;16.20;7.93;;;;;;;-0.05;68.71;99541.41;4979109;28;20046;-76
2022/11/04 04:32:32;;;;;;;16.55;8.32;;;;;;;-0.06;69.15;99544.94;4977985;28;20052;-77
2022/11/04 04:37:42;;;;;;;18.08;7.68;;;;;;;-0.03;68.88;99544.84;5078112;28;20047;-79
2022/11/04 04:45:42;;;;;;;13.05;7.68;;;;;;;-0.02;68.64;99557.03;5098771;27;20043;-77
2022/11/04 04:48:10;;;;;;;15.98;8.65;;;;;;;-0.02;68.30;99551.81;5097804;27;20039;-76
2022/11/04 04:50:39;;;;;;;13.57;7.65;;;;;;;0.00;68.48;99553.44;5079953;27;20054;-76
2022/11/04 04:53:04;;;;;;;13.75;7.90;;;;;;;0.02;68.47;99548.16;5062455;27;20031;-76
2022/11/04 04:55:30;;;;;;;12.25;6.85;;;;;;;0.02;68.20;99552.56;5098154;27;20051;-77
2022/11/04 04:57:55;;;;;;;12.73;7.35;;;;;;;0.05;68.12;99561.19;5080124;27;20038;-77
2022/11/04 05:00:20;;;;;;;16.73;8.55;;;;;;;0.09;68.31;99556.72;5097964;27;20047;-78
2022/11/04 05:02:45;;;;;;;15.10;8.75;;;;;;;0.12;68.34;99562.72;5101777;27;20043;-77
2022/11/04 05:05:12;;;;;;;12.45;8.05;;;;;;;0.12;68.22;99553.97;5099056;27;20054;-77
2022/11/04 05:07:36;;;;;;;15.43;7.38;;;;;;;0.12;68.37;99557.47;5098178;27;20513;-78
2022/11/04 05:10:01;;;;;;;15.45;7.88;;;;;;;0.13;67.92;99555.69;5079129;27;20692;-76
2022/11/04 05:13:24;;;;;;;14.40;7.93;;;;;;;0.11;68.13;99553.16;5099078;27;20562;-77
2022/11/04 05:15:10;;;;;;;13.88;6.97;;;;;;;0.13;68.37;99558.31;5082026;27;20104;-78
2022/11/04 05:17:34;;;;;;;13.60;6.88;;;;;;;0.11;67.83;99562.78;5088415;27;20043;-77
2022/11/04 05:19:59;;;;;;;13.65;6.70;;;;;;;0.09;68.11;99559.34;5117019;27;20042;-80
2022/11/04 05:22:24;;;;;;;10.45;6.32;;;;;;;0.09;67.88;99573.31;5118070;27;20083;-80
2022/11/04 05:24:48;;;;;;;12.10;6.03;;;;;;;0.08;67.55;99557.63;5100209;27;20045;-81
2022/11/04 05:27:13;;;;;;;14.80;7.30;;;;;;;0.09;67.66;99561.97;5100777;27;20038;-79
2022/11/04 05:29:37;;;;;;;13.02;6.05;;;;;;;0.11;68.06;99571.50;5099676;27;20034;-80
2022/11/04 05:32:02;;;;;;;12.10;6.20;;;;;;;0.12;67.59;99567.94;5099405;27;20049;-78
2022/11/04 05:34:27;;;;;;;12.98;6.90;;;;;;;0.13;67.70;99569.66;5118271;27;20030;-76
2022/11/04 05:36:51;;;;;;;12.02;5.72;;;;;;;0.15;67.55;99567.00;5082540;27;20515;-78
2022/11/04 05:39:16;;;;;;;9.75;5.90;;;;;;;0.16;67.91;99572.22;5082779;27;20042;-77
2022/11/04 05:41:41;;;;;;;12.80;6.55;;;;;;;0.17;67.42;99571.31;5082524;27;20050;-80
2022/11/04 05:44:08;;;;;;;13.75;5.97;;;;;;;0.19;67.22;99577.38;5082491;27;20046;-79
2022/11/04 05:46:32;;;;;;;12.55;5.10;;;;;;;0.20;67.08;99565.97;5082075;27;20042;-79
2022/11/04 05:48:57;;;;;;;12.93;5.35;;;;;;;0.22;67.33;99568.56;5101233;27;20039;-78
2022/11/04 05:51:25;;;;;;;8.93;5.07;;;;;;;0.24;67.24;99572.81;5117878;27;20042;-76
2022/11/04 05:53:50;;;;;;;8.93;5.18;;;;;;;0.24;66.68;99570.19;5099485;27;20042;-76
2022/11/04 05:56:15;;;;;;;10.55;5.40;;;;;;;0.25;67.19;99571.06;5065060;27;20087;-77
2022/11/04 05:58:39;;;;;;;10.23;5.93;;;;;;;0.22;66.91;99579.91;5117586;27;20074;-76
2022/11/04 06:01:23;;;;;;;10.10;5.75;;;;;;;0.28;66.68;99591.94;5102150;27;20066;-74
2022/11/04 06:03:48;;;;;;;12.70;5.72;;;;;;;0.21;66.63;99583.41;5120062;27;20038;-75
2022/11/04 06:06:13;;;;;;;8.63;4.55;;;;;;;0.24;66.48;99579.81;5099823;27;20043;-75
2022/11/04 06:08:38;;;;;;;9.77;6.53;;;;;;;0.24;66.53;99578.06;5103795;27;20161;-78
2022/11/04 06:11:04;;;;;;;14.73;6.00;;;;;;;0.26;66.28;99592.00;5120724;27;20563;-75
2022/11/04 06:13:28;;;;;;;8.77;4.93;;;;;;;0.28;66.78;99586.69;5118171;27;20475;-76
2022/11/04 06:15:53;;;;;;;8.00;5.18;;;;;;;0.29;66.81;99577.94;5095696;27;20416;-77
2022/11/04 06:18:17;;;;;;;10.90;5.47;;;;;;;0.29;66.70;99583.19;5096560;27;20043;-76
2022/11/04 06:20:42;;;;;;;9.50;4.50;;;;;;;0.28;66.52;99584.94;5060746;27;20050;-70
2022/11/04 06:23:07;;;;;;;9.07;5.75;;;;;;;0.27;66.70;99580.59;5076937;27;20552;-71
2022/11/04 06:25:31;;;;;;;8.23;4.68;;;;;;;0.25;66.42;99587.66;5076869;27;20043;-70
2022/11/04 06:27:56;;;;;;;9.90;4.88;;;;;;;0.24;66.01;99585.06;5096405;27;20039;-69
2022/11/04 06:30:20;;;;;;;13.48;5.70;;;;;;;0.25;66.29;99586.78;5095463;27;20049;-70
2022/11/04 06:32:45;;;;;;;8.32;4.93;;;;;;;0.23;66.55;99628.78;5095713;27;20378;-71
2022/11/04 06:35:09;;;;;;;8.90;5.22;;;;;;;0.26;66.30;99594.59;5095534;27;20382;-71
2022/11/04 06:37:34;;;;;;;11.40;5.20;;;;;;;0.29;66.25;99591.03;5095768;27;20122;-71
2022/11/04 06:39:59;;;;;;;11.15;5.07;;;;;;;0.34;66.19;99592.59;5077139;27;20440;-70
2022/11/04 06:42:25;;;;;;;8.68;5.10;;;;;;;0.40;65.80;99590.72;5095719;27;20425;-74
2022/11/04 06:44:50;;;;;;;8.18;5.07;;;;;;;0.46;65.98;99596.59;5099570;27;20497;-71
2022/11/04 06:47:14;;;;;;;10.45;5.57;;;;;;;0.49;65.93;99588.66;5094630;27;20050;-70
2022/11/04 06:49:39;;;;;;;13.52;5.05;;;;;;;0.55;65.56;99595.47;5100336;27;20532;-70
2022/11/04 06:52:04;;;;;;;16.52;6.40;;;;;;;0.62;65.65;99586.50;5119314;27;20606;-71
2022/11/04 06:54:28;;;;;;;10.95;4.95;;;;;;;0.69;65.42;99603.75;5082374;27;20135;-69
2022/11/04 06:56:53;;;;;;;6.93;5.22;;;;;;;0.74;64.81;99604.47;5118815;27;20035;-68
2022/11/04 06:59:19;;;;;;;9.57;5.22;;;;;;;0.80;65.03;99595.53;5118736;27;20045;-67
2022/11/04 07:01:44;;;;;;;9.23;5.13;;;;;;;0.84;65.33;99608.50;5080476;27;20034;-70
2022/11/04 07:04:09;;;;;;;9.65;5.20;;;;;;;0.89;65.17;99603.13;5115606;27;20417;-69
2022/11/04 07:06:34;;;;;;;9.35;5.47;;;;;;;0.91;64.87;99610.03;5115523;27;20060;-69
2022/11/04 07:09:00;;;;;;;9.43;5.00;;;;;;;0.94;64.68;99607.31;5080375;27;20053;-68
2022/11/04 07:11:26;;;;;;;7.13;5.22;;;;;;;0.96;63.99;99610.75;5118139;27;20045;-68
2022/11/04 07:13:51;;;;;;;7.22;4.80;;;;;;;1.00;64.24;99617.63;5098734;27;20134;-71
2022/11/04 07:16:17;;;;;;;7.22;4.90;;;;;;;1.02;64.44;99618.41;5078160;28;20130;-71
2022/11/04 07:18:41;;;;;;;10.15;5.60;;;;;;;1.02;63.94;99612.28;5098278;28;20047;-68
2022/11/04 07:21:07;;;;;;;6.60;4.88;;;;;;;1.06;64.54;99608.66;5081236;28;20059;-70
2022/11/04 07:23:32;;;;;;;11.45;6.13;;;;;;;1.04;64.08;99600.84;5100085;28;20062;-70
2022/11/04 07:26:02;;;;;;;10.52;6.28;;;;;;;1.09;64.04;99609.44;5099868;28;20035;-70
2022/11/04 07:28:27;;;;;;;11.43;5.40;;;;;;;1.14;64.02;99605.75;5100102;28;20042;-70
2022/11/04 07:30:58;;;;;;;9.82;5.43;;;;;;;1.23;63.94;99603.72;5101071;28;20045;-71
2022/11/04 07:33:24;;;;;;;11.57;7.13;;;;;;;1.23;63.63;99600.22;5080298;28;20095;-77
2022/11/04 07:35:48;;;;;;;9.65;6.07;;;;;;;1.31;63.42;99609.56;5080090;28;20076;-79
2022/11/04 07:38:13;;;;;;;21.27;6.22;;;;;;;1.41;63.38;99594.31;5052270;28;20042;-78
2022/11/04 07:40:38;;;;;;;10.32;5.78;;;;;;;1.56;63.37;99604.31;5068640;28;20050;-76
2022/11/04 07:43:02;;;;;;;10.98;6.18;;;;;;;1.75;63.47;99594.84;5070794;27;20505;-78
2022/11/04 07:45:35;;;;;;;9.07;5.13;;;;;;;1.94;62.83;99602.03;5092317;27;20099;-77
2022/11/04 07:48:00;;;;;;;9.80;6.22;;;;;;;2.03;62.79;99589.41;5131497;27;20066;-77
2022/11/04 07:50:25;;;;;;;10.77;5.60;;;;;;;2.09;62.47;99601.47;5109161;27;20046;-77
2022/11/04 07:52:50;;;;;;;10.57;6.03;;;;;;;2.10;62.12;99600.56;5124908;27;20064;-75
2022/11/04 07:55:17;;;;;;;11.82;5.65;;;;;;;2.09;61.98;99602.34;5123648;27;20042;-76
2022/11/04 07:57:46;;;;;;;11.95;5.85;;;;;;;2.09;62.21;99602.34;5122248;27;20091;-74
2022/11/04 08:00:16;;;;;;;10.70;6.20;;;;;;;2.01;62.13;99607.03;5106294;27;20435;-75
2022/11/04 08:02:46;;;;;;;13.80;6.95;;;;;;;1.99;61.52;99605.38;5125222;27;20046;-75
2022/11/04 08:05:12;;;;;;;10.27;5.45;;;;;;;1.95;61.63;99604.59;5121484;27;20046;-76
2022/11/04 08:07:38;;;;;;;12.60;5.88;;;;;;;1.91;61.95;99610.91;5121326;27;20473;-75
2022/11/04 08:10:04;;;;;;;9.95;5.72;;;;;;;1.86;61.70;99618.09;5121080;27;20053;-75
2022/11/04 08:12:31;;;;;;;10.50;6.20;;;;;;;1.80;61.83;99606.06;5120447;27;20130;-75
2022/11/04 08:14:56;;;;;;;13.73;7.57;;;;;;;1.74;61.73;99605.41;5084926;27;20035;-75
2022/11/04 08:17:21;;;;;;;11.60;5.78;;;;;;;1.69;61.76;99612.59;5102404;27;20081;-74
2022/11/04 08:19:45;;;;;;;11.18;6.22;;;;;;;1.69;61.90;99607.34;5118818;27;20061;-75
2022/11/04 08:22:10;;;;;;;11.52;5.93;;;;;;;1.70;62.72;99611.66;5099856;27;20035;-75
2022/11/04 08:24:35;;;;;;;9.20;5.82;;;;;;;1.73;62.83;99601.06;5099137;27;20050;-75
2022/11/04 08:27:01;;;;;;;7.80;4.95;;;;;;;1.71;62.85;99603.72;5100625;27;20156;-75
2022/11/04 08:29:26;;;;;;;8.13;5.38;;;;;;;1.73;62.90;99604.53;5064143;27;20134;-75
2022/11/04 08:31:50;;;;;;;8.95;5.72;;;;;;;1.75;63.03;99600.09;5098560;27;20431;-75
2022/11/04 08:34:17;;;;;;;14.65;5.53;;;;;;;1.77;62.95;99608.78;5099156;27;20466;-76
2022/11/04 08:36:41;;;;;;;8.45;4.50;;;;;;;1.78;63.19;99604.38;5080815;27;20039;-78
2022/11/04 08:39:08;;;;;;;9.05;5.32;;;;;;;1.77;62.62;99598.28;5098657;27;20046;-77
2022/11/04 08:41:35;;;;;;;15.63;5.80;;;;;;;1.78;62.79;99602.63;5079864;27;20507;-76
2022/11/04 08:44:02;;;;;;;13.20;6.15;;;;;;;1.78;62.65;99596.50;5098708;27;20063;-75
2022/11/04 08:46:28;;;;;;;13.68;6.28;;;;;;;1.79;62.76;99596.44;5092047;27;20044;-76
2022/11/04 08:48:52;;;;;;;19.48;6.43;;;;;;;1.76;62.64;99593.06;5078047;28;20054;-77
2022/11/04 08:51:21;;;;;;;10.63;6.65;;;;;;;1.74;62.74;99592.25;5059841;28;20043;-78
2022/11/04 08:53:45;;;;;;;12.38;6.90;;;;;;;1.62;62.59;99592.69;5078064;28;20039;-79
2022/11/04 08:56:18;;;;;;;17.83;8.48;;;;;;;1.52;62.94;99600.06;5076369;28;20043;-75
2022/11/04 08:58:43;;;;;;;15.48;7.18;;;;;;;1.52;63.09;99592.19;5078132;28;20088;-75
2022/11/04 09:01:09;;;;;;;13.70;6.72;;;;;;;1.50;63.59;99594.00;5067231;28;20099;-76
2022/11/04 09:03:37;;;;;;;16.77;7.55;;;;;;;1.56;63.71;99596.41;5094198;28;20115;-77
2022/11/04 09:06:02;;;;;;;15.38;6.07;;;;;;;1.64;63.55;99588.25;5078430;28;20035;-76
2022/11/04 09:08:26;;;;;;;11.40;5.95;;;;;;;1.65;63.48;99598.72;5077842;28;20131;-76
2022/11/04 09:10:51;;;;;;;10.98;6.18;;;;;;;1.69;63.41;99597.66;5077841;28;20043;-77
2022/11/04 09:13:16;;;;;;;22.30;6.88;;;;;;;1.68;63.61;99589.88;5043436;28;20047;-76
2022/11/04 09:15:41;;;;;;;14.43;7.32;;;;;;;1.64;63.70;99604.03;5060741;28;20054;-77
2022/11/04 09:18:07;;;;;;;20.13;7.22;;;;;;;1.64;64.55;99596.13;5078483;28;20126;-76
2022/11/04 09:20:33;;;;;;;12.45;6.75;;;;;;;1.63;64.19;99600.53;5064163;28;20055;-77
2022/11/04 09:22:58;;;;;;;14.82;6.10;;;;;;;1.57;64.56;99595.50;5077246;28;20043;-76
2022/11/04 09:25:23;;;;;;;13.52;6.60;;;;;;;1.58;64.47;99591.13;5076466;28;20040;-74
2022/11/04 09:27:48;;;;;;;16.90;6.97;;;;;;;1.61;65.03;99597.09;5077928;28;20368;-79
2022/11/04 09:30:14;;;;;;;11.65;6.55;;;;;;;1.63;64.81;99591.78;5077964;28;20035;-77
2022/11/04 09:32:39;;;;;;;14.23;6.82;;;;;;;1.65;64.97;99598.72;5077206;28;20134;-77
2022/11/04 09:35:04;;;;;;;18.00;8.18;;;;;;;1.65;64.85;99590.84;5076024;28;20130;-78
2022/11/04 09:37:28;;;;;;;14.80;8.25;;;;;;;1.69;64.93;99595.03;5076010;28;20047;-76
2022/11/04 09:39:53;;;;;;;17.40;7.38;;;;;;;1.72;64.86;99589.69;5077331;28;20043;-76
2022/11/04 09:42:32;;;;;;;17.50;8.35;;;;;;;1.80;64.77;99592.06;5076763;28;20141;-78
2022/11/04 09:45:00;;;;;;;17.17;7.43;;;;;;;1.80;64.66;99590.28;5077908;28;20130;-77
2022/11/04 09:47:25;;;;;;;16.60;9.18;;;;;;;1.75;65.01;99592.22;5077275;27;20043;-77
2022/11/04 09:49:56;;;;;;;16.60;8.10;;;;;;;1.72;64.76;99588.81;5077264;28;20159;-76
2022/11/04 09:52:25;;;;;;;25.85;7.60;;;;;;;1.73;65.49;99595.81;5077094;28;20151;-77
2022/11/04 09:54:57;;;;;;;15.38;7.72;;;;;;;1.83;65.27;99587.53;5077644;28;20043;-76
2022/11/04 09:57:21;;;;;;;14.88;7.15;;;;;;;1.91;64.85;99584.63;5077541;28;20043;-77
2022/11/04 09:59:47;;;;;;;12.90;6.88;;;;;;;2.01;65.07;99590.41;5077035;28;20092;-80
2022/11/04 10:02:30;;;;;;;17.85;7.38;;;;;;;2.18;64.96;99590.59;5076961;28;20043;-79
2022/11/04 10:05:06;;;;;;;15.35;6.22;;;;;;;2.23;64.41;99590.44;5077145;28;20040;-78
2022/11/04 10:07:39;;;;;;;12.93;6.32;;;;;;;2.20;64.29;99599.28;5074429;28;20588;-79
2022/11/04 10:10:17;;;;;;;10.43;6.13;;;;;;;2.17;64.47;99592.38;5076714;28;20560;-77
2022/11/04 10:12:45;;;;;;;14.18;6.13;;;;;;;2.16;64.26;99589.78;5076535;28;20070;-78
2022/11/04 10:15:22;;;;;;;7.50;5.32;;;;;;;2.14;64.14;99589.03;5075809;28;20563;-79
2022/11/04 10:18:20;;;;;;;11.57;5.05;;;;;;;2.13;64.45;99603.09;5079174;27;20081;-78
2022/11/04 10:20:55;;;;;;;13.02;5.55;;;;;;;2.13;64.12;99597.81;5077995;28;20055;-78
2022/11/04 10:23:37;;;;;;;10.63;5.90;;;;;;;2.11;64.31;99591.75;5076881;28;20058;-79
2022/11/04 10:26:16;;;;;;;11.65;5.97;;;;;;;2.01;64.39;99596.50;5058030;28;20039;-78
2022/11/04 10:28:45;;;;;;;9.00;6.20;;;;;;;1.97;64.85;99596.66;5092282;27;20264;-78
2022/11/04 10:31:15;;;;;;;15.25;6.13;;;;;;;2.01;64.99;99595.66;5076273;28;20654;-77
2022/11/04 10:33:46;;;;;;;10.93;7.20;;;;;;;2.00;65.09;99591.31;5075651;28;20043;-77
2022/11/04 10:36:12;;;;;;;10.00;6.47;;;;;;;1.99;65.11;99593.06;5075993;28;20039;-78
2022/11/04 10:38:40;;;;;;;13.68;7.03;;;;;;;2.02;65.01;99594.75;5075963;28;20133;-77
2022/11/04 10:41:38;;;;;;;10.57;6.80;;;;;;;2.09;64.71;99594.44;5076355;28;20058;-78
2022/11/04 10:44:19;;;;;;;11.27;6.60;;;;;;;2.07;65.02;99611.19;5069302;28;20059;-79
2022/11/04 10:46:54;;;;;;;9.10;6.50;;;;;;;2.02;64.97;99592.97;5078277;28;20100;-78
2022/11/04 10:49:37;;;;;;;16.70;6.50;;;;;;;2.08;65.11;99594.50;5096083;27;20043;-78
2022/11/04 10:52:04;;;;;;;10.43;6.40;;;;;;;1.98;65.12;99590.50;5086056;28;20412;-79
2022/11/04 10:54:38;;;;;;;12.13;8.13;;;;;;;1.97;65.43;99596.66;5103357;27;20470;-78
2022/11/04 10:57:03;;;;;;;14.68;7.68;;;;;;;1.95;65.24;99591.47;5100243;27;20039;-78
2022/11/04 10:59:36;;;;;;;19.88;8.65;;;;;;;1.93;65.64;99592.44;5095984;27;20050;-78
2022/11/04 11:02:02;;;;;;;11.80;7.00;;;;;;;1.92;65.31;99585.50;5096659;27;20038;-78
2022/11/04 11:04:32;;;;;;;13.00;8.45;;;;;;;1.90;65.40;99585.53;5095652;28;20043;-78
2022/11/04 11:06:58;;;;;;;14.50;8.30;;;;;;;1.85;65.48;99584.84;5096270;28;20035;-77
2022/11/04 11:09:28;;;;;;;20.67;9.63;;;;;;;1.86;65.81;99583.06;5096441;28;20112;-77
2022/11/04 11:11:59;;;;;;;20.45;8.98;;;;;;;1.85;66.00;99594.50;5096383;28;20039;-78
2022/11/04 11:14:27;;;;;;;29.90;10.35;;;;;;;1.88;65.71;99589.13;5096913;28;20116;-78
2022/11/04 11:16:53;;;;;;;26.50;9.10;;;;;;;1.86;65.68;99591.81;5079206;28;20546;-78
2022/11/04 11:19:21;;;;;;;14.88;9.88;;;;;;;1.85;65.68;99584.84;5099195;27;20486;-78
2022/11/04 11:21:52;;;;;;;17.45;8.60;;;;;;;1.86;65.74;99585.69;5119876;27;20509;-78
2022/11/04 11:24:29;;;;;;;15.32;9.27;;;;;;;1.90;66.00;99597.81;5087662;27;20042;-77
2022/11/04 11:27:10;;;;;;;16.20;9.50;;;;;;;1.90;65.69;99589.94;5089267;27;20396;-78
2022/11/04 11:29:39;;;;;;;15.00;8.80;;;;;;;1.90;65.73;99590.78;5125440;27;20046;-78
2022/11/04 11:32:04;;;;;;;14.95;9.18;;;;;;;1.96;66.19;99593.19;5122286;27;20076;-78
2022/11/04 11:34:37;;;;;;;15.20;7.90;;;;;;;2.07;65.71;99598.03;5102678;27;20034;-78
2022/11/04 11:37:04;;;;;;;13.55;8.15;;;;;;;2.05;65.70;99600.72;5120133;27;20057;-77
2022/11/04 11:39:31;;;;;;;13.50;7.75;;;;;;;2.08;65.94;99602.38;5112408;27;20062;-77
2022/11/04 11:42:10;;;;;;;14.73;8.30;;;;;;;2.08;65.53;99591.88;5102099;27;20039;-78
2022/11/04 11:44:45;;;;;;;14.60;9.20;;;;;;;2.06;65.57;99604.22;5101805;27;20047;-79
2022/11/04 11:47:30;;;;;;;16.52;7.97;;;;;;;2.09;65.56;99604.09;5084928;27;20555;-78
2022/11/04 11:50:17;;;;;;;14.30;9.23;;;;;;;2.07;65.58;99605.91;5103839;27;20050;-79
2022/11/04 11:52:44;;;;;;;15.85;9.15;;;;;;;2.01;65.90;99606.16;5121562;27;20486;-79
2022/11/04 11:55:18;;;;;;;14.77;8.95;;;;;;;2.01;66.33;99600.91;5102596;27;20050;-78
2022/11/04 11:58:16;;;;;;;13.70;8.50;;;;;;;2.01;66.11;99611.44;5121430;27;20042;-78
2022/11/04 12:01:00;;;;;;;17.40;10.20;;;;;;;2.00;66.27;99609.72;5121170;27;20039;-79
2022/11/04 12:03:39;;;;;;;14.25;9.98;;;;;;;1.92;66.15;99614.41;5102931;27;20042;-79
2022/11/04 12:06:30;;;;;;;19.00;9.30;;;;;;;1.88;66.09;99621.53;5121145;27;20069;-81
2022/11/04 12:08:57;;;;;;;15.38;8.65;;;;;;;1.82;66.05;99611.22;5085774;27;20394;-78
2022/11/04 12:11:41;;;;;;;20.27;9.68;;;;;;;1.81;66.43;99623.50;5084409;27;20564;-75
2022/11/04 12:14:41;;;;;;;20.90;9.83;;;;;;;1.87;66.54;99630.31;5119750;27;20035;-75